Time;durP1;ratioP1;P1;durP2;ratioP2;P2;SDS_P1;SDS_P2;PMS_P1;PMS_P2;Temp;Humidity;BMP_temperature;BMP_pressure;BME280_temperature;BME280_humidity;BME280_pressure;Samples;Min_cycle;Max_cycle;Signal;HPM_P1;HPM_P2
2021/12/22 00:01:27;;;;;;;13.67;10.90;;;;;;;;;;5055328;28;20072;-54
2021/12/22 00:03:54;;;;;;;15.47;11.20;;;;;;;;;;5055251;28;20033;-54
2021/12/22 00:06:23;;;;;;;13.27;11.00;;;;;;;;;;5055338;28;20412;-55
2021/12/22 00:08:49;;;;;;;12.23;10.93;;;;;;;;;;5055039;28;20033;-50
2021/12/22 00:11:15;;;;;;;12.40;10.63;;;;;;;;;;5055054;28;20021;-55
2021/12/22 00:13:41;;;;;;;14.00;11.33;;;;;;;;;;5055057;28;20120;-51
2021/12/22 00:16:07;;;;;;;12.80;11.50;;;;;;;;;;5055172;28;20423;-52
2021/12/22 00:18:33;;;;;;;11.60;9.87;;;;;;;;;;5054420;28;20037;-55
2021/12/22 00:20:59;;;;;;;13.53;11.77;;;;;;;;;;5055107;28;20041;-54
2021/12/22 00:23:25;;;;;;;12.50;11.27;;;;;;;;;;5054964;28;20051;-54
2021/12/22 00:25:51;;;;;;;13.47;11.20;;;;;;;;;;5054807;28;20497;-53
2021/12/22 00:28:17;;;;;;;11.37;8.47;;;;;;;;;;5054485;28;20055;-55
2021/12/22 00:30:44;;;;;;;20.57;12.50;;;;;;;;;;5054935;28;20079;-52
2021/12/22 00:33:12;;;;;;;17.50;13.10;;;;;;;;;;5054704;28;20029;-54
2021/12/22 00:35:40;;;;;;;15.23;11.17;;;;;;;;;;5054903;28;20051;-56
2021/12/22 00:38:07;;;;;;;14.67;11.93;;;;;;;;;;5053863;28;20085;-54
2021/12/22 00:40:33;;;;;;;15.67;11.97;;;;;;;;;;5054904;28;20055;-54
2021/12/22 00:42:59;;;;;;;14.70;11.33;;;;;;;;;;5054502;28;20025;-54
2021/12/22 00:45:28;;;;;;;10.43;9.43;;;;;;;;;;5054703;28;20038;-54
2021/12/22 00:47:54;;;;;;;18.70;11.57;;;;;;;;;;5053864;28;20040;-53
2021/12/22 00:50:20;;;;;;;16.87;13.43;;;;;;;;;;5054476;28;20036;-55
2021/12/22 00:52:46;;;;;;;19.60;14.23;;;;;;;;;;5054131;28;20029;-55
2021/12/22 00:55:17;;;;;;;15.17;13.57;;;;;;;;;;5054564;28;20036;-55
2021/12/22 00:57:43;;;;;;;;;;;;;;;;;;5054769;28;20095;-54
2021/12/22 01:00:09;;;;;;;12.20;10.80;;;;;;;;;;5053723;28;19913;-56
2021/12/22 01:02:35;;;;;;;16.40;10.77;;;;;;;;;;5054001;28;20486;-53
2021/12/22 01:05:01;;;;;;;15.10;11.97;;;;;;;;;;5054131;28;20048;-54
2021/12/22 01:07:27;;;;;;;11.67;10.40;;;;;;;;;;5053960;28;20021;-54
2021/12/22 01:09:53;;;;;;;13.17;11.77;;;;;;;;;;5053591;28;20095;-53
2021/12/22 01:12:19;;;;;;;17.63;12.23;;;;;;;;;;5054211;28;20025;-53
2021/12/22 01:14:45;;;;;;;10.67;9.60;;;;;;;;;;5053797;28;20548;-53
2021/12/22 01:17:14;;;;;;;14.30;12.67;;;;;;;;;;5054176;28;20024;-55
2021/12/22 01:19:58;;;;;;;13.17;11.77;;;;;;;;;;5053418;28;20455;-55
2021/12/22 01:22:35;;;;;;;13.60;10.30;;;;;;;;;;5053811;28;20041;-54
2021/12/22 01:25:07;;;;;;;13.57;10.13;;;;;;;;;;5053801;28;20082;-51
2021/12/22 01:27:36;;;;;;;13.17;11.77;;;;;;;;;;5053722;28;20574;-54
2021/12/22 01:30:11;;;;;;;8.55;7.78;;;;;;;;;;5052935;28;20033;-54
2021/12/22 01:32:37;;;;;;;13.33;11.13;;;;;;;;;;5053501;28;20025;-55
2021/12/22 01:35:05;;;;;;;10.83;9.50;;;;;;;;;;5053694;28;20037;-53
2021/12/22 01:37:30;;;;;;;18.60;11.83;;;;;;;;;;5053597;28;20024;-51
2021/12/22 01:39:56;;;;;;;15.50;13.50;;;;;;;;;;5052851;28;20173;-56
2021/12/22 01:42:22;;;;;;;14.93;12.47;;;;;;;;;;5053125;28;20029;-54
2021/12/22 01:45:13;;;;;;;18.43;12.47;;;;;;;;;;5053191;28;20356;-53
2021/12/22 01:50:36;;;;;;;11.40;9.67;;;;;;;;;;5053527;28;20044;-55
2021/12/22 01:53:06;;;;;;;12.30;11.07;;;;;;;;;;5053285;28;20029;-54
2021/12/22 01:55:37;;;;;;;12.03;10.43;;;;;;;;;;5053291;28;20029;-55
2021/12/22 01:58:03;;;;;;;11.13;10.00;;;;;;;;;;5052646;28;20029;-53
2021/12/22 02:00:29;;;;;;;12.70;11.50;;;;;;;;;;5053340;28;20178;-54
2021/12/22 02:02:58;;;;;;;12.97;11.23;;;;;;;;;;5053012;28;20029;-54
2021/12/22 02:05:24;;;;;;;15.37;11.40;;;;;;;;;;5052962;28;20107;-56
2021/12/22 02:07:55;;;;;;;14.17;10.20;;;;;;;;;;5052216;28;20025;-55
2021/12/22 02:10:35;;;;;;;14.27;11.30;;;;;;;;;;5053330;28;20028;-53
2021/12/22 02:13:01;;;;;;;13.03;11.23;;;;;;;;;;5052895;28;20021;-50
2021/12/22 02:15:32;;;;;;;13.77;11.13;;;;;;;;;;5052637;28;20104;-53
2021/12/22 02:18:01;;;;;;;12.53;11.33;;;;;;;;;;5052066;28;20091;-53
2021/12/22 02:20:27;;;;;;;11.57;10.37;;;;;;;;;;5052523;28;20043;-54
2021/12/22 02:22:57;;;;;;;12.27;11.10;;;;;;;;;;5052904;28;20025;-50
2021/12/22 02:25:32;;;;;;;20.03;11.57;;;;;;;;;;5052728;28;20025;-50
2021/12/22 02:27:59;;;;;;;13.20;11.27;;;;;;;;;;5052035;28;20263;-55
2021/12/22 02:30:28;;;;;;;13.27;11.07;;;;;;;;;;5052412;28;20040;-51
2021/12/22 02:35:28;;;;;;;13.87;10.97;;;;;;;;;;5052603;28;20037;-54
2021/12/22 02:37:54;;;;;;;12.10;9.60;;;;;;;;;;5051845;28;20036;-53
2021/12/22 02:40:26;;;;;;;16.03;11.70;;;;;;;;;;5052511;28;20043;-54
2021/12/22 02:42:54;;;;;;;13.37;11.77;;;;;;;;;;5052362;28;20025;-54
2021/12/22 02:45:21;;;;;;;12.57;9.97;;;;;;;;;;5051979;28;20029;-54
2021/12/22 02:47:48;;;;;;;12.50;9.90;;;;;;;;;;5051635;28;20029;-50
2021/12/22 02:50:15;;;;;;;12.73;11.03;;;;;;;;;;5052181;28;20111;-54
2021/12/22 02:53:04;;;;;;;12.17;10.97;;;;;;;;;;5051517;28;20060;-54
2021/12/22 02:55:42;;;;;;;13.30;9.27;;;;;;;;;;5052159;28;20029;-54
2021/12/22 02:58:10;;;;;;;14.80;11.03;;;;;;;;;;5051736;28;20383;-54
2021/12/22 03:01:02;;;;;;;13.83;10.10;;;;;;;;;;5052257;28;20033;-53
2021/12/22 03:06:05;;;;;;;11.37;9.83;;;;;;;;;;5032101;28;20040;-54
2021/12/22 03:08:31;;;;;;;23.83;10.57;;;;;;;;;;5031701;28;20033;-54
2021/12/22 03:10:57;;;;;;;11.63;10.60;;;;;;;;;;5032050;28;20041;-54
2021/12/22 03:13:25;;;;;;;16.63;12.67;;;;;;;;;;5032215;28;20025;-53
2021/12/22 03:15:51;;;;;;;14.03;10.83;;;;;;;;;;5032020;28;20021;-55
2021/12/22 03:18:18;;;;;;;12.27;10.80;;;;;;;;;;5031283;28;20068;-56
2021/12/22 03:20:45;;;;;;;10.97;9.53;;;;;;;;;;5031828;28;20537;-55
2021/12/22 03:23:11;;;;;;;11.07;9.87;;;;;;;;;;5031865;28;20022;-54
2021/12/22 03:25:39;;;;;;;13.93;10.40;;;;;;;;;;5032099;28;20036;-52
2021/12/22 03:28:05;;;;;;;12.63;11.33;;;;;;;;;;5031382;28;20092;-54
2021/12/22 03:30:31;;;;;;;12.93;11.10;;;;;;;;;;5031984;28;20022;-50
2021/12/22 03:32:58;;;;;;;11.70;10.50;;;;;;;;;;5031773;28;20441;-53
2021/12/22 03:35:24;;;;;;;10.80;9.80;;;;;;;;;;5031851;28;20071;-49
2021/12/22 03:37:51;;;;;;;11.30;10.20;;;;;;;;;;5031497;28;20116;-51
2021/12/22 03:40:21;;;;;;;12.87;10.83;;;;;;;;;;5032029;28;20034;-56
2021/12/22 03:42:48;;;;;;;12.85;11.43;;;;;;;;;;5031958;28;20075;-54
2021/12/22 03:45:14;;;;;;;15.40;11.93;;;;;;;;;;5031854;28;20026;-51
2021/12/22 03:47:40;;;;;;;16.47;9.80;;;;;;;;;;5031742;28;20026;-54
2021/12/22 03:50:09;;;;;;;16.40;12.40;;;;;;;;;;5029960;28;20029;-51
2021/12/22 03:52:35;;;;;;;14.50;12.07;;;;;;;;;;5031860;28;20029;-52
2021/12/22 03:55:01;;;;;;;14.40;12.37;;;;;;;;;;5031788;28;20029;-52
2021/12/22 03:57:28;;;;;;;11.70;10.00;;;;;;;;;;5032013;28;20018;-53
2021/12/22 03:59:57;;;;;;;12.87;11.57;;;;;;;;;;5030814;28;20083;-50
2021/12/22 04:02:23;;;;;;;13.33;12.03;;;;;;;;;;5043057;28;20107;-52
2021/12/22 04:04:50;;;;;;;12.17;10.97;;;;;;;;;;5054179;28;20032;-51
2021/12/22 04:07:17;;;;;;;14.97;12.97;;;;;;;;;;5055338;28;20387;-50
2021/12/22 04:09:43;;;;;;;14.87;10.13;;;;;;;;;;5054661;28;20029;-52
2021/12/22 04:12:09;;;;;;;14.93;12.40;;;;;;;;;;5055185;28;20025;-52
2021/12/22 04:14:35;;;;;;;13.80;12.20;;;;;;;;;;5055200;28;20029;-52
2021/12/22 04:17:01;;;;;;;20.37;14.23;;;;;;;;;;5054973;28;20028;-52
2021/12/22 04:19:27;;;;;;;22.53;10.90;;;;;;;;;;5054546;28;20037;-51
2021/12/22 04:21:53;;;;;;;12.27;11.07;;;;;;;;;;5054858;28;20467;-50
2021/12/22 04:24:20;;;;;;;12.60;10.53;;;;;;;;;;5055085;28;20482;-51
2021/12/22 04:26:46;;;;;;;16.77;9.73;;;;;;;;;;5054871;28;20410;-51
2021/12/22 04:29:13;;;;;;;13.87;10.10;;;;;;;;;;5054251;28;20378;-49
2021/12/22 04:31:39;;;;;;;14.67;10.93;;;;;;;;;;5049302;28;20028;-51
2021/12/22 04:34:08;;;;;;;12.97;11.40;;;;;;;;;;5054919;28;20025;-49
2021/12/22 04:36:38;;;;;;;14.77;11.67;;;;;;;;;;5054773;28;20135;-54
2021/12/22 04:39:04;;;;;;;16.67;12.10;;;;;;;;;;5054189;28;20033;-49
2021/12/22 04:41:31;;;;;;;14.93;9.73;;;;;;;;;;5054817;28;20348;-52
2021/12/22 04:43:57;;;;;;;11.20;10.07;;;;;;;;;;5054541;28;20075;-50
2021/12/22 04:46:23;;;;;;;12.47;10.17;;;;;;;;;;5054603;28;20494;-51
2021/12/22 04:48:49;;;;;;;17.17;13.30;;;;;;;;;;5053890;28;20056;-54
2021/12/22 04:51:24;;;;;;;11.30;10.30;;;;;;;;;;5051761;28;20032;-50
2021/12/22 04:53:57;;;;;;;12.07;10.53;;;;;;;;;;5053967;28;20029;-53
2021/12/22 04:56:23;;;;;;;14.40;11.80;;;;;;;;;;5053203;28;20104;-51
2021/12/22 04:58:49;;;;;;;14.27;11.30;;;;;;;;;;5053397;28;20112;-49
2021/12/22 05:01:15;;;;;;;14.30;12.17;;;;;;;;;;5054197;28;20032;-53
2021/12/22 05:03:41;;;;;;;19.60;11.17;;;;;;;;;;5054235;28;20108;-52
2021/12/22 05:06:07;;;;;;;18.27;12.57;;;;;;;;;;5053828;28;20033;-54
2021/12/22 05:08:33;;;;;;;14.57;13.07;;;;;;;;;;5051430;28;20025;-54
2021/12/22 05:10:59;;;;;;;11.53;10.33;;;;;;;;;;5054030;28;20029;-55
2021/12/22 05:13:25;;;;;;;16.73;12.20;;;;;;;;;;5053788;28;20398;-53
2021/12/22 05:15:52;;;;;;;12.17;10.47;;;;;;;;;;5053631;28;20096;-55
2021/12/22 05:18:47;;;;;;;12.97;10.43;;;;;;;;;;5053336;28;20059;-54
2021/12/22 05:21:10;;;;;;;15.47;11.47;;;;;;;;;;5053571;28;20036;-55
2021/12/22 05:23:36;;;;;;;23.23;11.43;;;;;;;;;;5053496;28;20032;-55
2021/12/22 05:26:02;;;;;;;15.93;13.03;;;;;;;;;;5054087;28;20100;-56
2021/12/22 05:28:28;;;;;;;15.90;14.20;;;;;;;;;;5053198;28;20037;-54
2021/12/22 05:30:54;;;;;;;12.80;10.93;;;;;;;;;;5053916;28;20033;-54
2021/12/22 05:33:20;;;;;;;14.43;11.63;;;;;;;;;;5053588;28;20525;-53
2021/12/22 05:35:46;;;;;;;20.50;15.60;;;;;;;;;;5053082;28;20458;-51
2021/12/22 05:38:12;;;;;;;17.97;16.07;;;;;;;;;;5052233;28;20029;-55
2021/12/22 05:40:38;;;;;;;18.67;11.53;;;;;;;;;;5053660;28;20029;-53
2021/12/22 05:43:04;;;;;;;13.50;11.57;;;;;;;;;;5053542;28;20564;-54
2021/12/22 05:45:30;;;;;;;11.17;10.00;;;;;;;;;;5053547;28;20021;-54
2021/12/22 05:47:56;;;;;;;13.23;11.30;;;;;;;;;;5052812;28;20367;-52
2021/12/22 05:50:23;;;;;;;12.83;10.40;;;;;;;;;;5053312;28;20087;-55
2021/12/22 05:52:50;;;;;;;13.17;10.43;;;;;;;;;;5053046;28;20462;-52
2021/12/22 05:55:16;;;;;;;17.83;10.07;;;;;;;;;;5053577;28;20021;-50
2021/12/22 05:57:42;;;;;;;15.97;9.70;;;;;;;;;;5052774;28;20051;-53
2021/12/22 06:00:08;;;;;;;11.37;9.97;;;;;;;;;;5052958;28;20116;-52
2021/12/22 06:02:34;;;;;;;9.47;8.53;;;;;;;;;;5053049;28;20029;-52
2021/12/22 06:05:00;;;;;;;14.93;9.73;;;;;;;;;;5053100;28;20025;-53
2021/12/22 06:07:26;;;;;;;15.60;11.63;;;;;;;;;;5052868;28;20103;-55
2021/12/22 06:09:52;;;;;;;13.60;12.23;;;;;;;;;;5052372;28;20036;-53
2021/12/22 06:12:18;;;;;;;14.47;11.67;;;;;;;;;;5052902;28;20020;-53
2021/12/22 06:14:44;;;;;;;11.73;10.53;;;;;;;;;;5053036;28;20083;-55
2021/12/22 06:17:10;;;;;;;19.40;10.57;;;;;;;;;;5052865;28;20021;-54
2021/12/22 06:19:36;;;;;;;14.13;10.53;;;;;;;;;;5052189;28;20028;-52
2021/12/22 06:22:02;;;;;;;13.10;11.77;;;;;;;;;;5052390;28;20036;-54
2021/12/22 06:24:29;;;;;;;13.13;11.83;;;;;;;;;;5052865;28;20025;-51
2021/12/22 06:26:55;;;;;;;15.07;12.20;;;;;;;;;;5052556;28;20041;-52
2021/12/22 06:29:21;;;;;;;13.40;11.93;;;;;;;;;;5052141;28;20040;-52
2021/12/22 06:31:47;;;;;;;14.00;9.47;;;;;;;;;;5052621;28;20017;-54
2021/12/22 06:34:14;;;;;;;10.13;8.97;;;;;;;;;;5052401;28;20037;-54
2021/12/22 06:36:40;;;;;;;12.43;11.07;;;;;;;;;;5052046;28;20086;-54
2021/12/22 06:39:06;;;;;;;13.23;11.00;;;;;;;;;;5052124;28;20105;-54
2021/12/22 06:41:32;;;;;;;16.80;12.27;;;;;;;;;;5052198;28;20438;-55
2021/12/22 06:43:58;;;;;;;16.37;13.57;;;;;;;;;;5052619;28;20063;-55
2021/12/22 06:46:24;;;;;;;15.47;12.03;;;;;;;;;;5052272;28;20094;-56
2021/12/22 06:48:50;;;;;;;15.77;11.93;;;;;;;;;;5051491;28;20394;-55
2021/12/22 06:51:16;;;;;;;12.63;10.10;;;;;;;;;;5051985;28;20111;-56
2021/12/22 06:53:42;;;;;;;12.63;10.50;;;;;;;;;;5052704;28;20025;-55
2021/12/22 06:56:08;;;;;;;14.63;11.10;;;;;;;;;;5051928;28;20033;-56
2021/12/22 06:58:34;;;;;;;12.77;11.37;;;;;;;;;;5051455;28;20043;-54
2021/12/22 07:01:00;;;;;;;15.37;10.57;;;;;;;;;;5052133;28;20029;-52
2021/12/22 07:03:27;;;;;;;13.97;12.47;;;;;;;;;;5051973;28;20044;-50
2021/12/22 07:05:53;;;;;;;16.40;12.60;;;;;;;;;;5051948;28;20025;-53
2021/12/22 07:08:19;;;;;;;15.27;11.43;;;;;;;;;;5051189;28;20536;-53
2021/12/22 07:10:45;;;;;;;12.47;11.17;;;;;;;;;;5051942;28;20529;-51
2021/12/22 07:13:14;;;;;;;13.37;9.93;;;;;;;;;;5051836;28;20075;-53
2021/12/22 07:15:40;;;;;;;13.33;11.93;;;;;;;;;;5051747;28;20062;-54
2021/12/22 07:18:08;;;;;;;17.03;13.10;;;;;;;;;;5051031;28;20651;-53
2021/12/22 07:20:35;;;;;;;16.90;12.33;;;;;;;;;;5052097;28;20266;-49
2021/12/22 07:23:01;;;;;;;16.23;11.20;;;;;;;;;;5051158;28;20021;-51
2021/12/22 07:25:27;;;;;;;16.63;14.03;;;;;;;;;;5050235;28;20025;-53
2021/12/22 07:27:52;;;;;;;14.47;12.83;;;;;;;;;;5049869;28;20034;-54
2021/12/22 07:30:18;;;;;;;14.27;12.47;;;;;;;;;;5051979;28;20518;-54
2021/12/22 07:32:44;;;;;;;12.07;9.90;;;;;;;;;;5051582;28;20025;-51
2021/12/22 07:35:14;;;;;;;19.87;11.30;;;;;;;;;;5050873;28;20459;-52
2021/12/22 07:37:40;;;;;;;15.65;12.68;;;;;;;;;;5051448;28;20021;-52
2021/12/22 07:40:08;;;;;;;16.27;12.07;;;;;;;;;;5054277;28;20356;-54
2021/12/22 07:42:34;;;;;;;14.63;12.03;;;;;;;;;;5055509;28;20052;-52
2021/12/22 07:45:00;;;;;;;17.03;11.50;;;;;;;;;;5055577;28;20470;-52
2021/12/22 07:47:26;;;;;;;14.83;13.30;;;;;;;;;;5055646;28;20110;-53
2021/12/22 07:49:52;;;;;;;15.97;11.23;;;;;;;;;;5054695;28;20032;-53
2021/12/22 07:52:18;;;;;;;11.27;10.10;;;;;;;;;;5055585;28;20025;-54
2021/12/22 07:54:44;;;;;;;15.90;12.13;;;;;;;;;;5055530;28;20021;-52
2021/12/22 07:57:10;;;;;;;18.63;12.33;;;;;;;;;;5055515;28;20108;-52
2021/12/22 07:59:35;;;;;;;14.70;11.33;;;;;;;;;;5054771;28;20039;-51
2021/12/22 08:02:02;;;;;;;24.47;13.53;;;;;;;;;;5054631;28;20497;-52
2021/12/22 08:04:28;;;;;;;13.47;11.90;;;;;;;;;;5054985;28;20455;-50
2021/12/22 08:06:55;;;;;;;21.90;13.93;;;;;;;;;;5055184;28;20403;-52
2021/12/22 08:09:26;;;;;;;15.07;12.63;;;;;;;;;;5054253;28;20459;-52
2021/12/22 08:11:55;;;;;;;17.60;12.53;;;;;;;;;;5055286;28;20039;-49
2021/12/22 08:14:22;;;;;;;10.87;9.83;;;;;;;;;;5054936;28;20017;-49
2021/12/22 08:16:49;;;;;;;18.23;12.60;;;;;;;;;;5055081;28;20546;-51
2021/12/22 08:19:15;;;;;;;11.50;10.20;;;;;;;;;;5054196;28;20072;-49
2021/12/22 08:21:41;;;;;;;12.67;11.27;;;;;;;;;;5055131;28;20064;-54
2021/12/22 08:24:07;;;;;;;14.23;11.53;;;;;;;;;;5054864;28;20032;-55
2021/12/22 08:26:34;;;;;;;16.57;13.83;;;;;;;;;;5055048;28;20096;-50
2021/12/22 08:29:00;;;;;;;11.73;10.07;;;;;;;;;;5054070;28;20367;-53
2021/12/22 08:31:25;;;;;;;17.30;12.00;;;;;;;;;;5054854;28;20045;-55
2021/12/22 08:33:54;;;;;;;14.27;12.13;;;;;;;;;;5054815;28;20194;-52
2021/12/22 08:39:05;;;;;;;13.30;10.53;;;;;;;;;;5053943;28;20039;-51
2021/12/22 08:41:33;;;;;;;19.00;15.20;;;;;;;;;;5054471;28;20029;-50
2021/12/22 08:44:00;;;;;;;16.03;13.27;;;;;;;;;;5054872;28;20029;-52
2021/12/22 08:46:27;;;;;;;16.83;13.77;;;;;;;;;;5054365;28;20112;-54
2021/12/22 08:48:53;;;;;;;16.17;13.00;;;;;;;;;;5053935;28;20031;-53
2021/12/22 08:51:21;;;;;;;16.00;11.30;;;;;;;;;;5053094;28;20032;-53
2021/12/22 08:53:47;;;;;;;16.57;12.27;;;;;;;;;;5054031;28;20040;-50
2021/12/22 08:56:13;;;;;;;20.00;14.30;;;;;;;;;;5054342;28;20471;-54
2021/12/22 08:58:39;;;;;;;14.63;11.53;;;;;;;;;;5053643;28;20059;-55
2021/12/22 09:01:05;;;;;;;13.03;10.77;;;;;;;;;;5053469;28;20127;-51
2021/12/22 09:03:32;;;;;;;17.30;13.50;;;;;;;;;;5053301;28;20038;-53
2021/12/22 09:05:58;;;;;;;13.90;12.60;;;;;;;;;;5047567;28;20033;-49
2021/12/22 09:08:25;;;;;;;17.33;13.23;;;;;;;;;;5052343;28;20368;-52
2021/12/22 09:10:50;;;;;;;17.33;14.13;;;;;;;;;;5049875;28;20021;-48
2021/12/22 09:13:19;;;;;;;14.93;13.33;;;;;;;;;;5042001;28;20374;-49
2021/12/22 09:15:45;;;;;;;16.60;15.00;;;;;;;;;;5054098;28;20119;-54
2021/12/22 09:18:11;;;;;;;16.43;14.50;;;;;;;;;;5053080;28;20036;-51
2021/12/22 09:20:37;;;;;;;17.87;14.73;;;;;;;;;;5034479;28;20030;-53
2021/12/22 09:23:03;;;;;;;20.73;13.17;;;;;;;;;;5034422;28;20126;-51
2021/12/22 09:25:29;;;;;;;16.17;12.70;;;;;;;;;;5049684;28;20020;-51
2021/12/22 09:27:55;;;;;;;17.30;11.90;;;;;;;;;;5053353;28;20101;-53
2021/12/22 09:30:21;;;;;;;15.83;12.50;;;;;;;;;;5054109;28;20029;-53
2021/12/22 09:32:47;;;;;;;19.53;14.47;;;;;;;;;;5053819;28;20032;-52
2021/12/22 09:35:13;;;;;;;15.13;11.87;;;;;;;;;;5053317;28;20032;-52
2021/12/22 09:37:39;;;;;;;16.53;13.23;;;;;;;;;;5033941;28;20052;-51
2021/12/22 09:40:05;;;;;;;13.83;12.10;;;;;;;;;;5032973;28;20108;-53
2021/12/22 09:42:31;;;;;;;15.87;12.77;;;;;;;;;;5033517;28;20088;-54
2021/12/22 09:45:00;;;;;;;14.53;11.23;;;;;;;;;;5037322;28;20458;-51
2021/12/22 09:47:30;;;;;;;14.83;12.37;;;;;;;;;;5053276;28;20021;-52
2021/12/22 09:52:31;;;;;;;14.43;12.37;;;;;;;;;;5053213;28;20086;-52
2021/12/22 09:54:59;;;;;;;14.03;10.37;;;;;;;;;;5053197;28;20099;-52
2021/12/22 09:57:26;;;;;;;13.47;10.87;;;;;;;;;;5053352;28;20383;-49
2021/12/22 09:59:53;;;;;;;18.37;15.47;;;;;;;;;;5052096;28;20115;-53
2021/12/22 10:02:20;;;;;;;14.00;9.80;;;;;;;;;;5052524;28;20033;-54
2021/12/22 10:04:46;;;;;;;16.63;11.40;;;;;;;;;;5053046;28;20111;-53
2021/12/22 10:07:20;;;;;;;15.90;11.43;;;;;;;;;;5053343;28;20367;-52
2021/12/22 10:09:47;;;;;;;16.50;12.93;;;;;;;;;;5052509;28;20028;-52
2021/12/22 10:12:24;;;;;;;18.30;12.73;;;;;;;;;;5052951;28;20029;-50
2021/12/22 10:14:53;;;;;;;19.97;13.83;;;;;;;;;;5052674;28;20029;-55
2021/12/22 10:17:30;;;;;;;17.60;11.87;;;;;;;;;;5052711;28;20056;-55
2021/12/22 10:19:57;;;;;;;16.17;11.53;;;;;;;;;;5052133;28;20458;-49
2021/12/22 10:22:29;;;;;;;14.33;11.47;;;;;;;;;;5052871;28;20388;-53
2021/12/22 10:25:00;;;;;;;14.07;11.27;;;;;;;;;;5053309;28;20397;-51
2021/12/22 10:27:29;;;;;;;15.17;11.83;;;;;;;;;;5052587;28;20067;-51
2021/12/22 10:29:55;;;;;;;19.07;14.93;;;;;;;;;;5051534;28;20112;-52
2021/12/22 10:32:21;;;;;;;13.60;11.17;;;;;;;;;;5052611;28;20474;-54
2021/12/22 10:35:00;;;;;;;19.90;11.83;;;;;;;;;;5052189;28;20129;-50
2021/12/22 10:37:31;;;;;;;16.60;11.38;;;;;;;;;;5052514;28;20021;-51
2021/12/22 10:39:57;;;;;;;16.13;12.60;;;;;;;;;;5051565;28;20036;-52
2021/12/22 10:42:38;;;;;;;17.20;13.43;;;;;;;;;;5051782;28;20132;-50
2021/12/22 10:45:11;;;;;;;12.20;10.85;;;;;;;;;;5052487;28;20029;-50
2021/12/22 10:49:14;;;;;;;14.20;12.77;;;;;;;;;;5052205;28;20029;-52
2021/12/22 10:50:31;;;;;;;17.67;12.57;;;;;;;;;;5052036;28;20352;-54
2021/12/22 10:52:58;;;;;;;13.93;10.93;;;;;;;;;;5052073;28;20104;-54
2021/12/22 10:55:24;;;;;;;12.50;10.57;;;;;;;;;;5052307;28;20176;-50
2021/12/22 10:57:50;;;;;;;14.27;11.53;;;;;;;;;;5051534;28;20025;-53
2021/12/22 11:00:25;;;;;;;14.47;11.63;;;;;;;;;;5052239;28;20104;-53
2021/12/22 11:03:06;;;;;;;15.63;11.83;;;;;;;;;;5051954;28;20032;-49
2021/12/22 11:05:42;;;;;;;12.97;10.33;;;;;;;;;;5050937;28;20031;-51
2021/12/22 11:08:17;;;;;;;17.47;10.17;;;;;;;;;;5050473;28;20024;-54
2021/12/22 11:10:43;;;;;;;11.70;10.00;;;;;;;;;;5050748;28;20029;-50
2021/12/22 11:13:09;;;;;;;15.00;10.93;;;;;;;;;;5050010;28;20115;-51
2021/12/22 11:15:41;;;;;;;14.57;10.70;;;;;;;;;;5050590;28;20024;-51
2021/12/22 11:18:10;;;;;;;16.50;13.03;;;;;;;;;;5031432;28;20370;-50
2021/12/22 11:20:36;;;;;;;18.03;12.33;;;;;;;;;;5032070;28;20064;-52
2021/12/22 11:23:11;;;;;;;15.70;12.43;;;;;;;;;;5031735;28;20121;-54
2021/12/22 11:25:39;;;;;;;15.63;11.43;;;;;;;;;;5043486;28;20078;-48
2021/12/22 11:28:05;;;;;;;17.73;13.60;;;;;;;;;;5050343;28;20059;-50
2021/12/22 11:30:31;;;;;;;10.90;9.73;;;;;;;;;;5051409;28;20071;-52
2021/12/22 11:32:58;;;;;;;15.40;11.40;;;;;;;;;;5051839;28;20032;-54
2021/12/22 11:35:24;;;;;;;17.73;13.33;;;;;;;;;;5051352;28;20036;-53
2021/12/22 11:37:50;;;;;;;16.47;11.67;;;;;;;;;;5051121;28;20117;-52
2021/12/22 11:40:17;;;;;;;12.97;10.97;;;;;;;;;;5051315;28;20382;-53
2021/12/22 11:42:44;;;;;;;13.13;10.77;;;;;;;;;;5050934;28;20128;-50
2021/12/22 11:45:20;;;;;;;14.87;12.03;;;;;;;;;;5051279;28;20045;-50
2021/12/22 11:47:48;;;;;;;20.70;12.97;;;;;;;;;;5051146;28;20029;-55
2021/12/22 11:50:16;;;;;;;14.47;11.17;;;;;;;;;;5051617;28;20025;-54
2021/12/22 11:52:52;;;;;;;12.47;10.93;;;;;;;;;;5051510;28;20037;-52
2021/12/22 11:55:23;;;;;;;13.50;11.37;;;;;;;;;;5051781;28;20056;-52
2021/12/22 11:57:50;;;;;;;15.13;11.93;;;;;;;;;;5050993;28;20029;-52
2021/12/22 12:00:23;;;;;;;16.33;12.37;;;;;;;;;;5051789;28;20037;-51
2021/12/22 12:02:49;;;;;;;14.47;11.43;;;;;;;;;;5051452;28;20028;-52
2021/12/22 12:05:17;;;;;;;14.60;12.27;;;;;;;;;;5051595;28;20420;-54
2021/12/22 12:07:44;;;;;;;18.50;11.57;;;;;;;;;;5050829;28;20063;-52
2021/12/22 12:10:29;;;;;;;13.90;11.97;;;;;;;;;;5051153;28;20041;-54
2021/12/22 12:13:00;;;;;;;17.70;12.70;;;;;;;;;;5051112;28;20027;-54
2021/12/22 12:15:52;;;;;;;17.43;11.60;;;;;;;;;;5051357;28;20041;-55
2021/12/22 12:21:41;;;;;;;13.47;11.00;;;;;;;;;;5049630;28;20498;-53
2021/12/22 12:24:26;;;;;;;17.33;12.50;;;;;;;;;;5045393;28;20058;-51
2021/12/22 12:26:52;;;;;;;14.70;11.40;;;;;;;;;;5053305;28;20025;-54
2021/12/22 12:29:38;;;;;;;15.43;12.17;;;;;;;;;;5054059;28;20036;-52
2021/12/22 12:32:04;;;;;;;15.80;14.00;;;;;;;;;;5054524;28;20103;-52
2021/12/22 12:34:30;;;;;;;19.10;11.07;;;;;;;;;;5054751;28;20025;-52
2021/12/22 12:36:56;;;;;;;16.40;11.93;;;;;;;;;;5054557;28;20091;-51
2021/12/22 12:39:45;;;;;;;19.27;12.53;;;;;;;;;;5054047;28;20455;-51
2021/12/22 12:42:11;;;;;;;13.83;11.60;;;;;;;;;;5053618;28;20401;-54
2021/12/22 12:44:37;;;;;;;15.87;12.17;;;;;;;;;;5033064;28;20061;-54
2021/12/22 12:47:17;;;;;;;15.27;13.00;;;;;;;;;;5032995;28;20022;-52
2021/12/22 12:49:44;;;;;;;18.35;12.55;;;;;;;;;;5033547;28;20033;-51
2021/12/22 12:52:11;;;;;;;16.03;11.53;;;;;;;;;;5034516;28;20025;-51
2021/12/22 12:54:40;;;;;;;15.60;12.57;;;;;;;;;;5034604;28;20025;-50
2021/12/22 12:57:15;;;;;;;20.13;12.67;;;;;;;;;;5034546;28;20021;-50
2021/12/22 12:59:51;;;;;;;17.17;12.47;;;;;;;;;;5033912;28;20032;-55
2021/12/22 13:02:21;;;;;;;11.93;9.97;;;;;;;;;;5053278;28;20039;-53
2021/12/22 13:04:47;;;;;;;16.73;14.33;;;;;;;;;;5054190;28;20488;-51
2021/12/22 13:07:13;;;;;;;13.97;11.27;;;;;;;;;;5054371;28;20029;-54
2021/12/22 13:09:39;;;;;;;16.27;12.03;;;;;;;;;;5053046;28;20057;-53
2021/12/22 13:17:24;;;;;;;15.00;11.57;;;;;;;;;;5054410;28;20063;-53
2021/12/22 13:20:00;;;;;;;14.67;12.03;;;;;;;;;;5053193;28;20029;-50
2021/12/22 13:22:30;;;;;;;12.03;10.53;;;;;;;;;;5051680;28;20037;-51
2021/12/22 13:25:07;;;;;;;13.63;10.90;;;;;;;;;;5052608;28;20048;-54
2021/12/22 13:27:33;;;;;;;14.10;11.37;;;;;;;;;;5052794;28;20425;-53
2021/12/22 13:30:29;;;;;;;16.77;12.10;;;;;;;;;;5052759;28;20454;-52
2021/12/22 13:32:55;;;;;;;12.17;10.10;;;;;;;;;;5052566;28;20055;-49
2021/12/22 13:35:47;;;;;;;15.47;11.10;;;;;;;;;;5052737;28;20025;-52
2021/12/22 13:38:20;;;;;;;16.70;11.67;;;;;;;;;;5051444;28;20340;-53
2021/12/22 13:40:51;;;;;;;16.20;14.40;;;;;;;;;;5053084;28;20029;-52
2021/12/22 13:43:17;;;;;;;;;;;;;;;;;;5053864;28;20025;-51
2021/12/22 13:45:43;;;;;;;12.23;8.33;;;;;;;;;;5053272;28;19904;-54
2021/12/22 13:48:19;;;;;;;12.00;10.80;;;;;;;;;;5053082;28;20025;-53
2021/12/22 13:50:46;;;;;;;16.23;13.47;;;;;;;;;;5053524;28;20020;-52
2021/12/22 13:53:13;;;;;;;13.27;11.87;;;;;;;;;;5053459;28;20485;-54
2021/12/22 13:55:39;;;;;;;16.00;12.93;;;;;;;;;;5052814;28;20361;-56
2021/12/22 13:58:43;;;;;;;13.97;12.37;;;;;;;;;;5052455;28;20579;-55
2021/12/22 14:01:15;;;;;;;21.47;10.63;;;;;;;;;;5050119;28;20079;-56
2021/12/22 14:03:42;;;;;;;15.60;9.33;;;;;;;;;;5050492;28;20040;-55
2021/12/22 14:06:09;;;;;;;16.77;11.83;;;;;;;;;;5041517;28;20073;-57
2021/12/22 14:08:36;;;;;;;13.63;12.23;;;;;;;;;;5032194;28;20128;-56
2021/12/22 14:11:02;;;;;;;14.10;10.97;;;;;;;;;;5033115;28;20499;-53
2021/12/22 14:13:29;;;;;;;13.30;10.77;;;;;;;;;;5033740;28;20032;-56
2021/12/22 14:15:55;;;;;;;12.00;9.23;;;;;;;;;;5033273;28;20080;-55
2021/12/22 14:18:21;;;;;;;12.23;9.53;;;;;;;;;;5032333;28;20029;-53
2021/12/22 14:20:47;;;;;;;13.03;9.60;;;;;;;;;;5032986;28;20029;-55
2021/12/22 14:23:13;;;;;;;16.77;9.47;;;;;;;;;;5032686;28;20025;-50
2021/12/22 14:25:40;;;;;;;12.43;11.13;;;;;;;;;;5032843;28;20029;-53
2021/12/22 14:28:21;;;;;;;15.10;11.80;;;;;;;;;;5035126;28;20052;-50
2021/12/22 14:30:47;;;;;;;12.88;11.15;;;;;;;;;;5052399;28;20486;-52
2021/12/22 14:33:13;;;;;;;14.77;10.07;;;;;;;;;;5052381;28;20017;-51
2021/12/22 14:35:43;;;;;;;12.90;10.47;;;;;;;;;;5052457;28;20025;-53
2021/12/22 14:38:17;;;;;;;22.23;13.20;;;;;;;;;;5052126;28;20029;-53
2021/12/22 14:40:52;;;;;;;13.40;10.20;;;;;;;;;;5052439;28;20064;-56
2021/12/22 14:43:18;;;;;;;16.37;11.70;;;;;;;;;;5052017;28;20021;-51
2021/12/22 14:45:47;;;;;;;13.13;10.47;;;;;;;;;;5052419;28;20108;-53
2021/12/22 14:48:19;;;;;;;15.07;12.90;;;;;;;;;;5051468;28;20108;-54